Lyndon, Kentucky
Current Conditions -  °F | °C
As of 7:53 AM on Sunday 23 Nov 2014 (Local Time) from KLOU Reporting Station
Overcast Overcast  
Wind Chill: 54°   Ceiling: 3600
Heat Index: 54°   Visibility: 10mi
Dew Point: 41°   Wind: 6mph
Humidity: 62%   Direction: 150°SSE
Pressure: 29.96"   Gusts: NA
Location:  38.3046°N, 85.5795°W
Report Text: KLOU 231253Z 15005KT 10SM BKN036 BKN043 OVC070 12/05 A2996 RMK AO2 SLP144 T01220050
Loading
Personal Weather Stations






























Interactive Weather Map New forecast layout! Learn more

10-Day Weather Forecast

Advertisements
Track Severe Weather on mobile